createdAt,value
2022-11-19T00:00:54.596Z,20.799999
2022-11-19T00:02:02.984Z,20.799999
2022-11-19T00:03:11.266Z,20.799999
2022-11-19T00:04:19.815Z,21.5
2022-11-19T00:05:28.132Z,21.5
2022-11-19T00:06:36.482Z,21.5
2022-11-19T00:07:44.990Z,20.799999
2022-11-19T00:08:53.338Z,20.799999
2022-11-19T00:10:01.690Z,20.799999
2022-11-19T00:11:10.220Z,21.200001
2022-11-19T00:12:18.543Z,21.200001
2022-11-19T00:13:26.870Z,21.200001
2022-11-19T00:14:35.422Z,21.5
2022-11-19T00:15:43.767Z,21.5
2022-11-19T00:16:52.088Z,21.5
2022-11-19T00:18:00.645Z,22.799999
2022-11-19T00:19:08.978Z,22.799999
2022-11-19T00:20:17.292Z,22.799999
2022-11-19T00:21:25.827Z,23.700001
2022-11-19T00:22:34.198Z,23.700001
2022-11-19T00:23:42.481Z,23.700001
2022-11-19T00:24:51.027Z,23
2022-11-19T00:25:59.362Z,23
2022-11-19T00:27:07.690Z,23
2022-11-19T00:28:16.232Z,22.700001
2022-11-19T00:29:24.598Z,22.700001
2022-11-19T00:30:47.301Z,22.700001
2022-11-19T00:31:41.413Z,25
2022-11-19T00:32:49.746Z,25
2022-11-19T00:33:58.077Z,25
2022-11-19T00:35:06.621Z,24.700001
2022-11-19T00:36:14.959Z,24.700001
2022-11-19T00:37:23.270Z,24.700001
2022-11-19T00:38:31.842Z,26.1
2022-11-19T00:39:40.158Z,26.1
2022-11-19T00:40:48.483Z,26.1
2022-11-19T00:41:57.026Z,26.299999
2022-11-19T00:43:05.356Z,26.299999
2022-11-19T00:44:13.686Z,26.299999
2022-11-19T00:45:22.226Z,25.9
2022-11-19T00:46:30.563Z,25.9
2022-11-19T00:47:38.889Z,25.9
2022-11-19T00:48:47.429Z,24.6
2022-11-19T00:49:55.774Z,24.6
2022-11-19T00:51:04.099Z,24.6
2022-11-19T00:52:12.640Z,25.799999
2022-11-19T00:53:20.972Z,25.799999
2022-11-19T00:54:29.341Z,25.799999
2022-11-19T00:55:37.844Z,24.4
2022-11-19T00:56:46.209Z,24.4
2022-11-19T00:57:54.523Z,24.4
2022-11-19T00:59:03.066Z,23.6
2022-11-19T01:00:11.397Z,23.6
2022-11-19T01:01:19.742Z,23.6
2022-11-19T01:02:28.271Z,25.1
2022-11-19T01:03:36.600Z,25.1
2022-11-19T01:04:44.951Z,25.1
2022-11-19T01:05:53.484Z,24
2022-11-19T01:07:01.843Z,24
2022-11-19T01:08:10.151Z,24
2022-11-19T01:09:18.877Z,22.9
2022-11-19T01:10:27.081Z,22.9
2022-11-19T01:11:35.374Z,22.9
2022-11-19T01:12:43.912Z,22.5
2022-11-19T01:13:52.241Z,22.5
2022-11-19T01:15:00.576Z,22.5
2022-11-19T01:16:09.111Z,20.799999
2022-11-19T01:17:17.448Z,20.799999
2022-11-19T01:18:25.769Z,20.799999
2022-11-19T01:19:34.322Z,22.299999
2022-11-19T01:20:42.706Z,22.299999
2022-11-19T01:21:50.975Z,22.299999
2022-11-19T01:22:59.515Z,21.4
2022-11-19T01:24:07.858Z,21.4
2022-11-19T01:25:16.180Z,21.4
2022-11-19T01:26:24.740Z,21.200001
2022-11-19T01:27:33.063Z,21.200001
2022-11-19T01:28:41.380Z,21.200001
2022-11-19T01:29:49.922Z,22
2022-11-19T01:30:58.270Z,22
2022-11-19T01:32:06.589Z,22
2022-11-19T01:33:15.131Z,21.4
2022-11-19T01:34:23.478Z,21.4
2022-11-19T01:35:31.789Z,21.4
2022-11-19T01:36:40.328Z,21.200001
2022-11-19T01:37:48.661Z,21.200001
2022-11-19T01:38:56.995Z,21.200001
2022-11-19T01:40:05.533Z,22.200001
2022-11-19T01:41:13.872Z,22.200001
2022-11-19T01:42:22.209Z,22.200001
2022-11-19T01:43:30.725Z,22.200001
2022-11-19T01:44:39.072Z,22.200001
2022-11-19T01:45:47.389Z,22.200001
2022-11-19T01:46:55.933Z,22
2022-11-19T01:48:04.269Z,22
2022-11-19T01:49:12.605Z,22
2022-11-19T01:50:21.148Z,21.1
2022-11-19T01:51:29.488Z,21.1
2022-11-19T01:52:37.815Z,21.1
2022-11-19T01:53:46.349Z,21.6
2022-11-19T01:54:54.694Z,21.6
2022-11-19T01:56:03.011Z,21.6
2022-11-19T01:57:11.547Z,20.299999
2022-11-19T01:58:19.930Z,20.299999
2022-11-19T01:59:28.215Z,20.299999
2022-11-19T02:00:36.754Z,18.799999
2022-11-19T02:01:45.148Z,18.799999
2022-11-19T02:02:53.405Z,18.799999
2022-11-19T02:04:01.989Z,18.299999
2022-11-19T02:05:10.291Z,18.299999
2022-11-19T02:06:18.612Z,18.299999
2022-11-19T02:07:27.196Z,17.700001
2022-11-19T02:08:35.478Z,17.700001
2022-11-19T02:09:43.801Z,17.700001
2022-11-19T02:10:52.339Z,18.6
2022-11-19T02:12:00.671Z,18.6
2022-11-19T02:13:08.998Z,18.6
2022-11-19T02:14:17.577Z,17.299999
2022-11-19T02:15:25.890Z,17.299999
2022-11-19T02:16:34.214Z,17.299999
2022-11-19T02:17:42.775Z,16.5
2022-11-19T02:18:51.094Z,16.5
2022-11-19T02:19:59.422Z,16.5
2022-11-19T02:21:07.955Z,16.6
2022-11-19T02:22:16.278Z,16.6
2022-11-19T02:23:24.616Z,16.6
2022-11-19T02:24:33.180Z,16.200001
2022-11-19T02:25:41.491Z,16.200001
2022-11-19T02:26:49.826Z,16.200001
2022-11-19T02:27:58.352Z,15
2022-11-19T02:29:06.694Z,15
2022-11-19T02:30:15.050Z,15
2022-11-19T02:31:23.557Z,15.6
2022-11-19T02:32:31.893Z,15.6
2022-11-19T02:33:40.223Z,15.6
2022-11-19T02:34:48.761Z,15.2
2022-11-19T02:35:57.096Z,15.2
2022-11-19T02:37:05.426Z,15.2
2022-11-19T02:38:13.962Z,14.9
2022-11-19T02:39:22.305Z,14.9
2022-11-19T02:40:30.625Z,14.9
2022-11-19T02:41:39.166Z,14.5
2022-11-19T02:42:47.496Z,14.5
2022-11-19T02:43:55.824Z,14.5
2022-11-19T02:45:04.367Z,14.6
2022-11-19T02:46:12.726Z,14.6
2022-11-19T02:47:21.033Z,14.6
2022-11-19T02:48:29.584Z,13.8
2022-11-19T02:49:37.927Z,13.8
2022-11-19T02:50:46.261Z,13.8
2022-11-19T02:51:54.800Z,14.3
2022-11-19T02:53:03.124Z,14.3
2022-11-19T02:54:11.468Z,14.3
2022-11-19T02:55:20.008Z,13.2
2022-11-19T02:56:28.328Z,13.2
2022-11-19T02:57:36.655Z,13.2
2022-11-19T02:58:45.189Z,13.4
2022-11-19T02:59:53.522Z,13.4
2022-11-19T03:01:01.903Z,13.4
2022-11-19T03:02:10.428Z,13.5
2022-11-19T03:03:18.713Z,13.5
2022-11-19T03:04:27.050Z,13.5
2022-11-19T03:05:35.597Z,13.3
2022-11-19T03:06:43.905Z,13.3
2022-11-19T03:07:52.236Z,13.3
2022-11-19T03:09:00.787Z,13.8
2022-11-19T03:10:09.108Z,13.8
2022-11-19T03:11:17.442Z,13.8
2022-11-19T03:12:25.994Z,14
2022-11-19T03:13:34.308Z,14
2022-11-19T03:14:42.644Z,14
2022-11-19T03:15:51.179Z,14.3
2022-11-19T03:16:59.501Z,14.3
2022-11-19T03:18:07.864Z,14.3
2022-11-19T03:19:16.632Z,13.5
2022-11-19T03:20:24.701Z,13.5
2022-11-19T03:21:33.027Z,13.5
2022-11-19T03:22:41.556Z,13.7
2022-11-19T03:23:49.892Z,13.7
2022-11-19T03:24:58.239Z,13.7
2022-11-19T03:26:06.759Z,12.8
2022-11-19T03:27:15.096Z,12.8
2022-11-19T03:28:23.420Z,12.8
2022-11-19T03:29:31.975Z,14.5
2022-11-19T03:30:40.301Z,14.5
2022-11-19T03:31:48.635Z,14.5
2022-11-19T03:32:57.183Z,14.2
2022-11-19T03:34:05.545Z,14.2
2022-11-19T03:35:13.862Z,14.2
2022-11-19T03:36:22.388Z,14
2022-11-19T03:37:30.711Z,14
2022-11-19T03:38:39.040Z,14
2022-11-19T03:39:47.575Z,13.5
2022-11-19T03:40:55.922Z,13.5
2022-11-19T03:42:04.244Z,13.5
2022-11-19T03:43:12.785Z,14.4
2022-11-19T03:44:21.130Z,14.4
2022-11-19T03:45:29.444Z,14.4
2022-11-19T03:46:37.990Z,14.4
2022-11-19T03:47:46.327Z,14.4
2022-11-19T03:48:54.648Z,14.4
2022-11-19T03:50:03.228Z,13.9
2022-11-19T03:51:11.535Z,13.9
2022-11-19T03:52:19.868Z,13.9
2022-11-19T03:53:28.401Z,13.5
2022-11-19T03:54:36.733Z,13.5
2022-11-19T03:55:45.061Z,13.5
2022-11-19T03:56:53.606Z,13.9
2022-11-19T03:58:01.940Z,13.9
2022-11-19T03:59:10.275Z,13.9
2022-11-19T04:00:18.811Z,14
2022-11-19T04:01:27.162Z,14
2022-11-19T04:02:35.471Z,14
2022-11-19T04:03:44.017Z,13.4
2022-11-19T04:04:52.351Z,13.4
2022-11-19T04:06:00.710Z,13.4
2022-11-19T04:07:09.281Z,13.7
2022-11-19T04:08:17.548Z,13.7
2022-11-19T04:09:25.890Z,13.7
2022-11-19T04:10:34.436Z,14.3
2022-11-19T04:11:42.768Z,14.3
2022-11-19T04:12:47.813Z,14.3
2022-11-19T04:13:56.368Z,14.7
2022-11-19T04:15:04.713Z,14.7
2022-11-19T04:16:13.045Z,14.7
2022-11-19T04:17:21.584Z,14.4
2022-11-19T04:18:29.927Z,14.4
2022-11-19T04:19:38.254Z,14.4
2022-11-19T04:20:46.795Z,14.4
2022-11-19T04:21:55.142Z,14.4
2022-11-19T04:23:03.469Z,14.4
2022-11-19T04:24:12.014Z,15.2
2022-11-19T04:25:20.333Z,15.2
2022-11-19T04:26:28.682Z,15.2
2022-11-19T04:27:37.217Z,15
2022-11-19T04:28:45.567Z,15
2022-11-19T04:29:53.896Z,15
2022-11-19T04:31:02.423Z,14.9
2022-11-19T04:32:10.752Z,14.9
2022-11-19T04:33:19.083Z,14.9
2022-11-19T04:34:27.624Z,15.8
2022-11-19T04:35:35.972Z,15.8
2022-11-19T04:36:44.302Z,15.8
2022-11-19T04:37:52.879Z,15.6
2022-11-19T04:39:01.189Z,15.6
2022-11-19T04:40:09.508Z,15.6
2022-11-19T04:41:18.047Z,16.1
2022-11-19T04:42:26.379Z,16.1
2022-11-19T04:43:34.698Z,16.1
2022-11-19T04:44:43.248Z,15.5
2022-11-19T04:45:51.572Z,15.5
2022-11-19T04:46:59.893Z,15.5
2022-11-19T04:48:08.436Z,16.1
2022-11-19T04:49:16.967Z,16.1
2022-11-19T04:50:25.116Z,16.1
2022-11-19T04:51:33.646Z,15.4
2022-11-19T04:52:41.988Z,15.4
2022-11-19T04:53:50.343Z,15.4
2022-11-19T04:54:58.867Z,15.9
2022-11-19T04:56:07.187Z,15.9
2022-11-19T04:57:15.516Z,15.9
2022-11-19T04:58:24.056Z,16.700001
2022-11-19T04:59:32.380Z,16.700001
2022-11-19T05:00:40.704Z,16.700001
2022-11-19T05:01:49.347Z,16.1
2022-11-19T05:02:57.571Z,16.1
2022-11-19T05:04:05.924Z,16.1
2022-11-19T05:05:14.455Z,16.4
2022-11-19T05:06:22.781Z,16.4
2022-11-19T05:07:31.252Z,16.4
2022-11-19T05:08:39.639Z,16.1
2022-11-19T05:09:48.010Z,16.1
2022-11-19T05:10:56.337Z,16.1
2022-11-19T05:12:04.868Z,16.6
2022-11-19T05:13:13.199Z,16.6
2022-11-19T05:14:22.847Z,16.6
2022-11-19T05:15:30.052Z,17.1
2022-11-19T05:16:38.379Z,17.1
2022-11-19T05:17:46.705Z,17.1
2022-11-19T05:18:55.239Z,15.8
2022-11-19T05:20:03.608Z,15.8
2022-11-19T05:21:11.941Z,15.8
2022-11-19T05:22:20.476Z,16.4
2022-11-19T05:23:28.800Z,16.4
2022-11-19T05:24:37.140Z,16.4
2022-11-19T05:25:45.697Z,16
2022-11-19T05:26:53.996Z,16
2022-11-19T05:28:02.324Z,16
2022-11-19T05:29:10.874Z,15.7
2022-11-19T05:30:19.203Z,15.7
2022-11-19T05:31:27.532Z,15.7
2022-11-19T05:32:36.078Z,16.299999
2022-11-19T05:33:44.402Z,16.299999
2022-11-19T05:34:52.747Z,16.299999
2022-11-19T05:36:01.308Z,16.4
2022-11-19T05:37:09.647Z,16.4
2022-11-19T05:38:17.980Z,16.4
2022-11-19T05:39:26.713Z,16.9
2022-11-19T05:40:34.858Z,16.9
2022-11-19T05:41:43.213Z,16.9
2022-11-19T05:42:51.726Z,15.7
2022-11-19T05:44:00.062Z,15.7
2022-11-19T05:45:08.387Z,15.7
2022-11-19T05:46:16.922Z,17.200001
2022-11-19T05:47:25.258Z,17.200001
2022-11-19T05:48:33.582Z,17.200001
2022-11-19T05:49:42.126Z,17.6
2022-11-19T05:50:50.464Z,17.6
2022-11-19T05:51:58.795Z,17.6
2022-11-19T05:53:07.329Z,16.700001
2022-11-19T05:54:15.791Z,16.700001
2022-11-19T05:55:24.015Z,16.700001
2022-11-19T05:56:32.550Z,16.4
2022-11-19T05:57:40.906Z,16.4
2022-11-19T05:58:49.210Z,16.4
2022-11-19T05:59:57.754Z,16.6
2022-11-19T06:01:06.090Z,16.6
2022-11-19T06:02:14.414Z,16.6
2022-11-19T06:03:22.956Z,16.799999
2022-11-19T06:04:31.295Z,16.799999
2022-11-19T06:05:40.881Z,16.799999
2022-11-19T06:06:48.822Z,17
2022-11-19T06:07:57.153Z,17
2022-11-19T06:09:05.496Z,17
2022-11-19T06:10:14.035Z,16.9
2022-11-19T06:11:22.384Z,16.9
2022-11-19T06:12:30.715Z,16.9
2022-11-19T06:13:39.282Z,16.9
2022-11-19T06:14:47.592Z,16.9
2022-11-19T06:15:55.924Z,16.9
2022-11-19T06:17:04.461Z,16.1
2022-11-19T06:18:12.791Z,16.1
2022-11-19T06:19:21.323Z,16.1
2022-11-19T06:20:29.670Z,16.5
2022-11-19T06:21:37.986Z,16.5
2022-11-19T06:22:46.361Z,16.5
2022-11-19T06:23:54.890Z,16.799999
2022-11-19T06:25:03.235Z,16.799999
2022-11-19T06:26:11.558Z,16.799999
2022-11-19T06:27:20.096Z,17
2022-11-19T06:28:28.419Z,17
2022-11-19T06:29:36.776Z,17
2022-11-19T06:30:45.309Z,16.1
2022-11-19T06:31:53.619Z,16.1
2022-11-19T06:33:01.949Z,16.1
2022-11-19T06:34:10.489Z,17.200001
2022-11-19T06:35:18.812Z,17.200001
2022-11-19T06:36:27.695Z,17.200001
2022-11-19T06:37:35.680Z,16.200001
2022-11-19T06:38:44.004Z,16.200001
2022-11-19T06:39:52.344Z,16.200001
2022-11-19T06:41:00.884Z,16.200001
2022-11-19T06:42:09.210Z,16.200001
2022-11-19T06:43:17.541Z,16.200001
2022-11-19T06:44:26.079Z,16
2022-11-19T06:45:34.436Z,16
2022-11-19T06:46:42.728Z,16
2022-11-19T06:47:51.282Z,16.9
2022-11-19T06:48:59.614Z,16.9
2022-11-19T06:50:07.942Z,16.9
2022-11-19T06:51:16.537Z,16
2022-11-19T06:52:24.859Z,16
2022-11-19T06:53:33.184Z,16
2022-11-19T06:54:43.200Z,15.4
2022-11-19T06:55:50.053Z,15.4
2022-11-19T06:56:58.385Z,15.4
2022-11-19T06:58:06.929Z,15.9
2022-11-19T06:59:15.276Z,15.9
2022-11-19T07:00:23.605Z,15.9
2022-11-19T07:01:32.207Z,16
2022-11-19T07:02:40.480Z,16
2022-11-19T07:03:48.808Z,16
2022-11-19T07:04:57.359Z,16.4
2022-11-19T07:06:05.696Z,16.4
2022-11-19T07:07:14.040Z,16.4
2022-11-19T07:08:22.557Z,16.299999
2022-11-19T07:09:30.904Z,16.299999
2022-11-19T07:10:39.239Z,16.299999
2022-11-19T07:11:47.775Z,16.5
2022-11-19T07:12:56.103Z,16.5
2022-11-19T07:14:04.451Z,16.5
2022-11-19T07:15:13.000Z,16
2022-11-19T07:16:21.316Z,16
2022-11-19T07:17:29.664Z,16
2022-11-19T07:18:38.180Z,15.3
2022-11-19T07:19:46.535Z,15.3
2022-11-19T07:20:54.875Z,15.3
2022-11-19T07:22:03.414Z,16.200001
2022-11-19T07:23:11.742Z,16.200001
2022-11-19T07:24:20.096Z,16.200001
2022-11-19T07:25:28.628Z,14.8
2022-11-19T07:26:36.988Z,14.8
2022-11-19T07:27:45.321Z,14.8
2022-11-19T07:28:53.867Z,15.7
2022-11-19T07:30:02.222Z,15.7
2022-11-19T07:31:10.544Z,15.7
2022-11-19T07:32:19.091Z,15.8
2022-11-19T07:33:27.482Z,15.8
2022-11-19T07:34:35.788Z,15.8
2022-11-19T07:35:44.381Z,16.4
2022-11-19T07:36:52.698Z,16.4
2022-11-19T07:38:01.101Z,16.4
2022-11-19T07:39:09.622Z,16.5
2022-11-19T07:40:17.950Z,16.5
2022-11-19T07:41:26.276Z,16.5
2022-11-19T07:42:34.816Z,16.5
2022-11-19T07:43:43.169Z,16.5
2022-11-19T07:44:54.736Z,16.5
2022-11-19T07:46:00.073Z,16.799999
2022-11-19T07:47:08.405Z,16.799999
2022-11-19T07:48:16.750Z,16.799999
2022-11-19T07:49:25.332Z,16.200001
2022-11-19T07:50:33.641Z,16.200001
2022-11-19T07:51:41.991Z,16.200001
2022-11-19T07:52:50.540Z,15.7
2022-11-19T07:53:58.947Z,15.7
2022-11-19T07:55:07.283Z,15.7
2022-11-19T07:56:15.828Z,16.1
2022-11-19T07:57:29.813Z,16.1
2022-11-19T07:58:32.493Z,16.1
2022-11-19T07:59:41.049Z,16.299999
2022-11-19T08:00:49.371Z,16.299999
2022-11-19T08:01:57.770Z,16.299999
2022-11-19T08:03:06.242Z,17.299999
2022-11-19T08:04:14.584Z,17.299999
2022-11-19T08:05:22.952Z,17.299999
2022-11-19T08:06:31.455Z,16.5
2022-11-19T08:07:39.894Z,16.5
2022-11-19T08:08:48.125Z,16.5
2022-11-19T08:09:56.666Z,15.6
2022-11-19T08:11:05.000Z,15.6
2022-11-19T08:12:13.324Z,15.6
2022-11-19T08:13:21.859Z,16.1
2022-11-19T08:14:30.205Z,16.1
2022-11-19T08:15:38.543Z,16.1
2022-11-19T08:16:47.081Z,15.9
2022-11-19T08:17:55.410Z,15.9
2022-11-19T08:19:03.752Z,15.9
2022-11-19T08:20:12.290Z,15.3
2022-11-19T08:21:20.664Z,15.3
2022-11-19T08:22:28.999Z,15.3
2022-11-19T08:23:37.533Z,14.9
2022-11-19T08:24:45.920Z,14.9
2022-11-19T08:25:54.263Z,14.9
2022-11-19T08:27:02.806Z,15.7
2022-11-19T08:28:11.140Z,15.7
2022-11-19T08:29:19.556Z,15.7
2022-11-19T08:30:28.103Z,16
2022-11-19T08:31:36.428Z,16
2022-11-19T08:32:44.758Z,16
2022-11-19T08:33:53.323Z,16.6
2022-11-19T08:35:01.668Z,16.6
2022-11-19T08:36:09.991Z,16.6
2022-11-19T08:37:18.552Z,16
2022-11-19T08:38:26.852Z,16
2022-11-19T08:39:35.197Z,16
2022-11-19T08:40:43.738Z,17.299999
2022-11-19T08:41:52.075Z,17.299999
2022-11-19T08:43:00.403Z,17.299999
2022-11-19T08:44:08.953Z,17.799999
2022-11-19T08:45:20.727Z,17.799999
2022-11-19T08:46:25.608Z,17.799999
2022-11-19T08:47:34.146Z,17.299999
2022-11-19T08:48:42.483Z,17.299999
2022-11-19T08:49:50.816Z,17.299999
2022-11-19T08:50:59.359Z,17.6
2022-11-19T08:52:07.691Z,17.6
2022-11-19T08:53:16.042Z,17.6
2022-11-19T08:54:24.576Z,16.9
2022-11-19T08:55:32.919Z,16.9
2022-11-19T08:56:41.238Z,16.9
2022-11-19T08:57:49.783Z,17.799999
2022-11-19T08:59:02.418Z,17.799999
2022-11-19T09:00:06.729Z,17.799999
2022-11-19T09:01:15.033Z,16.799999
2022-11-19T09:02:23.305Z,16.799999
2022-11-19T09:03:31.646Z,16.799999
2022-11-19T09:04:40.177Z,17.6
2022-11-19T09:05:48.516Z,17.6
2022-11-19T09:06:56.891Z,17.6
2022-11-19T09:08:05.380Z,17.700001
2022-11-19T09:09:13.799Z,17.700001
2022-11-19T09:10:22.127Z,17.700001
2022-11-19T09:11:30.591Z,17.5
2022-11-19T09:12:38.930Z,17.5
2022-11-19T09:13:47.279Z,17.5
2022-11-19T09:14:55.843Z,17.799999
2022-11-19T09:16:04.180Z,17.799999
2022-11-19T09:17:12.507Z,17.799999
2022-11-19T09:18:21.077Z,17.6
2022-11-19T09:19:29.449Z,17.6
2022-11-19T09:20:37.790Z,17.6
2022-11-19T09:21:46.311Z,19.700001
2022-11-19T09:22:54.696Z,19.700001
2022-11-19T09:24:03.051Z,19.700001
2022-11-19T09:25:11.624Z,17.700001
2022-11-19T09:26:19.946Z,17.700001
2022-11-19T09:27:28.288Z,17.700001
2022-11-19T09:28:36.862Z,17.1
2022-11-19T09:29:45.192Z,17.1
2022-11-19T09:30:53.529Z,17.1
2022-11-19T09:32:02.076Z,18
2022-11-19T09:33:10.404Z,18
2022-11-19T09:34:19.099Z,18
2022-11-19T09:35:27.288Z,17.700001
2022-11-19T09:36:35.619Z,17.700001
2022-11-19T09:37:43.942Z,17.700001
2022-11-19T09:38:52.488Z,19.5
2022-11-19T09:40:00.823Z,19.5
2022-11-19T09:41:09.223Z,19.5
2022-11-19T09:42:17.732Z,18.5
2022-11-19T09:43:26.057Z,18.5
2022-11-19T09:44:34.400Z,18.5
2022-11-19T09:45:42.942Z,17.4
2022-11-19T09:46:51.274Z,17.4
2022-11-19T09:47:59.603Z,17.4
2022-11-19T09:49:08.147Z,17.700001
2022-11-19T09:50:16.503Z,17.700001
2022-11-19T09:51:24.856Z,17.700001
2022-11-19T09:52:33.392Z,17.9
2022-11-19T09:53:41.755Z,17.9
2022-11-19T09:54:50.127Z,17.9
2022-11-19T09:55:58.697Z,18.200001
2022-11-19T09:57:07.144Z,18.200001
2022-11-19T09:58:15.350Z,18.200001
2022-11-19T09:59:23.926Z,19.799999
2022-11-19T10:00:32.271Z,19.799999
2022-11-19T10:01:40.643Z,19.799999
2022-11-19T10:02:49.194Z,18.1
2022-11-19T10:03:57.509Z,18.1
2022-11-19T10:05:05.882Z,18.1
2022-11-19T10:06:14.464Z,18.299999
2022-11-19T10:07:22.855Z,18.299999
2022-11-19T10:08:31.112Z,18.299999
2022-11-19T10:09:39.681Z,19.200001
2022-11-19T10:10:48.033Z,19.200001
2022-11-19T10:11:56.359Z,19.200001
2022-11-19T10:13:04.938Z,17.700001
2022-11-19T10:14:13.276Z,17.700001
2022-11-19T10:15:21.680Z,17.700001
2022-11-19T10:16:30.167Z,17.5
2022-11-19T10:17:38.501Z,17.5
2022-11-19T10:18:46.856Z,17.5
2022-11-19T10:19:55.409Z,17.799999
2022-11-19T10:21:03.781Z,17.799999
2022-11-19T10:22:12.115Z,17.799999
2022-11-19T10:23:20.662Z,17.9
2022-11-19T10:24:29.022Z,17.9
2022-11-19T10:25:37.353Z,17.9
2022-11-19T10:26:45.908Z,18.4
2022-11-19T10:27:54.273Z,18.4
2022-11-19T10:29:02.656Z,18.4
2022-11-19T10:30:11.188Z,19.299999
2022-11-19T10:31:19.524Z,19.299999
2022-11-19T10:32:27.886Z,19.299999
2022-11-19T10:33:36.431Z,17.9
2022-11-19T10:34:44.775Z,17.9
2022-11-19T10:35:53.118Z,17.9
2022-11-19T10:37:01.701Z,18.1
2022-11-19T10:38:10.038Z,18.1
2022-11-19T10:39:18.719Z,18.1
2022-11-19T10:40:26.941Z,18.299999
2022-11-19T10:41:35.294Z,18.299999
2022-11-19T10:42:43.621Z,18.299999
2022-11-19T10:43:52.188Z,18.4
2022-11-19T10:45:00.580Z,18.4
2022-11-19T10:46:08.890Z,18.4
2022-11-19T10:47:17.452Z,18.9
2022-11-19T10:48:25.812Z,18.9
2022-11-19T10:49:34.154Z,18.9
2022-11-19T10:50:42.734Z,17.299999
2022-11-19T10:51:51.087Z,17.299999
2022-11-19T10:52:59.420Z,17.299999
2022-11-19T10:54:07.991Z,17.9
2022-11-19T10:55:16.324Z,17.9
2022-11-19T10:56:24.709Z,17.9
2022-11-19T10:57:33.277Z,18.6
2022-11-19T10:58:41.644Z,18.6
2022-11-19T10:59:49.996Z,18.6
2022-11-19T11:00:58.629Z,17.5
2022-11-19T11:02:06.895Z,17.5
2022-11-19T11:03:15.252Z,17.5
2022-11-19T11:04:23.807Z,18.799999
2022-11-19T11:05:32.163Z,18.799999
2022-11-19T11:06:40.513Z,18.799999
2022-11-19T11:07:50.588Z,18.1
2022-11-19T11:08:57.396Z,18.1
2022-11-19T11:10:05.764Z,18.1
2022-11-19T11:11:14.300Z,18.5
2022-11-19T11:12:22.647Z,18.5
2022-11-19T11:13:30.980Z,18.5
2022-11-19T11:14:39.570Z,17.799999
2022-11-19T11:15:47.942Z,17.799999
2022-11-19T11:16:56.316Z,17.799999
2022-11-19T11:18:04.833Z,18.799999
2022-11-19T11:19:13.180Z,18.799999
2022-11-19T11:20:21.499Z,18.799999
2022-11-19T11:21:30.048Z,18.9
2022-11-19T11:22:38.370Z,18.9
2022-11-19T11:23:46.710Z,18.9
2022-11-19T11:24:55.264Z,17.6
2022-11-19T11:26:03.604Z,17.6
2022-11-19T11:27:11.948Z,17.6
2022-11-19T11:28:20.489Z,18.700001
2022-11-19T11:29:28.830Z,18.700001
2022-11-19T11:30:37.158Z,18.700001
2022-11-19T11:31:45.695Z,19
2022-11-19T11:32:54.108Z,19
2022-11-19T11:34:02.455Z,19
2022-11-19T11:35:15.001Z,17.9
2022-11-19T11:36:19.331Z,17.9
2022-11-19T11:37:27.662Z,17.9
2022-11-19T11:38:36.201Z,18.1
2022-11-19T11:39:44.588Z,18.1
2022-11-19T11:41:05.308Z,18.1
2022-11-19T11:42:05.720Z,16.9
2022-11-19T11:43:09.826Z,16.9
2022-11-19T11:44:18.208Z,16.9
2022-11-19T11:45:26.752Z,16.6
2022-11-19T11:46:35.083Z,16.6
2022-11-19T11:47:43.421Z,16.6
2022-11-19T11:48:52.006Z,16.799999
2022-11-19T11:50:00.339Z,16.799999
2022-11-19T11:51:08.660Z,16.799999
2022-11-19T11:52:17.225Z,16.200001
2022-11-19T11:53:25.558Z,16.200001
2022-11-19T11:54:33.906Z,16.200001
2022-11-19T11:55:42.438Z,16.1
2022-11-19T11:56:50.780Z,16.1
2022-11-19T11:57:59.100Z,16.1
2022-11-19T11:59:07.676Z,16.799999
2022-11-19T12:00:16.032Z,16.799999
2022-11-19T12:01:24.368Z,16.799999
2022-11-19T12:02:33.073Z,16.6
2022-11-19T12:03:54.273Z,16.6
2022-11-19T12:04:49.604Z,16.6
2022-11-19T12:05:58.118Z,17
2022-11-19T12:07:06.511Z,17
2022-11-19T12:08:14.770Z,17
2022-11-19T12:09:23.345Z,15.7
2022-11-19T12:10:31.704Z,15.7
2022-11-19T12:11:40.038Z,15.7
2022-11-19T12:12:48.619Z,16.5
2022-11-19T12:13:56.956Z,16.5
2022-11-19T12:15:05.298Z,16.5
2022-11-19T12:16:13.843Z,16.799999
2022-11-19T12:17:22.206Z,16.799999
2022-11-19T12:18:30.567Z,16.799999
2022-11-19T12:19:39.108Z,16.200001
2022-11-19T12:20:47.467Z,16.200001
2022-11-19T12:21:55.765Z,16.200001
2022-11-19T12:23:04.323Z,15.9
2022-11-19T12:24:12.686Z,15.9
2022-11-19T12:25:21.047Z,15.9
2022-11-19T12:26:29.596Z,15.6
2022-11-19T12:27:37.976Z,15.6
2022-11-19T12:28:46.318Z,15.6
2022-11-19T12:29:54.870Z,16.5
2022-11-19T12:31:03.234Z,16.5
2022-11-19T12:32:11.551Z,16.5
2022-11-19T12:33:20.139Z,17.1
2022-11-19T12:34:28.465Z,17.1
2022-11-19T12:35:36.814Z,17.1
2022-11-19T12:36:45.378Z,17.1
2022-11-19T12:37:53.683Z,17.1
2022-11-19T12:39:02.020Z,17.1
2022-11-19T12:40:10.596Z,16.700001
2022-11-19T12:41:18.910Z,16.700001
2022-11-19T12:42:27.252Z,16.700001
2022-11-19T12:43:35.790Z,16.4
2022-11-19T12:44:44.136Z,16.4
2022-11-19T12:45:52.472Z,16.4
2022-11-19T12:47:01.016Z,15.8
2022-11-19T12:48:09.358Z,15.8
2022-11-19T12:49:18.130Z,15.8
2022-11-19T12:50:26.242Z,15.9
2022-11-19T12:51:34.587Z,15.9
2022-11-19T12:52:42.946Z,15.9
2022-11-19T12:53:51.455Z,16.9
2022-11-19T12:54:59.797Z,16.9
2022-11-19T12:56:08.150Z,16.9
2022-11-19T12:57:16.698Z,17.700001
2022-11-19T12:58:25.051Z,17.700001
2022-11-19T12:59:33.389Z,17.700001
2022-11-19T13:00:41.939Z,17.799999
2022-11-19T13:01:50.283Z,17.799999
2022-11-19T13:02:58.620Z,17.799999
2022-11-19T13:04:07.164Z,18.9
2022-11-19T13:05:15.557Z,18.9
2022-11-19T13:06:23.833Z,18.9
2022-11-19T13:07:32.436Z,17.1
2022-11-19T13:08:40.758Z,17.1
2022-11-19T13:09:49.106Z,17.1
2022-11-19T13:10:57.637Z,17.5
2022-11-19T13:12:05.980Z,17.5
2022-11-19T13:13:14.308Z,17.5
2022-11-19T13:14:22.870Z,16.200001
2022-11-19T13:15:31.217Z,16.200001
2022-11-19T13:16:39.556Z,16.200001
2022-11-19T13:17:48.098Z,16.700001
2022-11-19T13:18:56.431Z,16.700001
2022-11-19T13:20:04.875Z,16.700001
2022-11-19T13:21:13.309Z,16.6
2022-11-19T13:22:21.642Z,16.6
2022-11-19T13:23:29.984Z,16.6
2022-11-19T13:24:38.551Z,16.6
2022-11-19T13:25:46.880Z,16.6
2022-11-19T13:26:55.210Z,16.6
2022-11-19T13:28:03.799Z,17.200001
2022-11-19T13:29:12.143Z,17.200001
2022-11-19T13:30:20.492Z,17.200001
2022-11-19T13:31:29.042Z,17.1
2022-11-19T13:32:37.388Z,17.1
2022-11-19T13:33:45.748Z,17.1
2022-11-19T13:34:54.292Z,17.299999
2022-11-19T13:36:02.623Z,17.299999
2022-11-19T13:37:11.000Z,17.299999
2022-11-19T13:38:19.611Z,16.6
2022-11-19T13:39:27.987Z,16.6
2022-11-19T13:40:36.410Z,16.6
2022-11-19T13:41:44.920Z,15.3
2022-11-19T13:43:10.391Z,15.3
2022-11-19T13:44:01.593Z,15.3
2022-11-19T13:45:10.143Z,16.9
2022-11-19T13:46:18.510Z,16.9
2022-11-19T13:47:26.850Z,16.9
2022-11-19T13:48:35.386Z,16.1
2022-11-19T13:49:43.733Z,16.1
2022-11-19T13:50:52.064Z,16.1
2022-11-19T13:52:00.620Z,17.200001
2022-11-19T13:53:08.956Z,17.200001
2022-11-19T13:54:17.366Z,17.200001
2022-11-19T13:55:25.914Z,16.700001
2022-11-19T13:56:34.398Z,16.700001
2022-11-19T13:57:42.702Z,16.700001
2022-11-19T13:58:51.240Z,15.3
2022-11-19T13:59:59.595Z,15.3
2022-11-19T14:01:08.589Z,15.3
2022-11-19T14:02:16.488Z,14.6
2022-11-19T14:03:24.826Z,14.6
2022-11-19T14:04:33.175Z,14.6
2022-11-19T14:05:41.722Z,14.4
2022-11-19T14:06:50.047Z,14.4
2022-11-19T14:07:58.410Z,14.4
2022-11-19T14:09:06.970Z,14.4
2022-11-19T14:10:15.302Z,14.4
2022-11-19T14:11:23.653Z,14.4
2022-11-19T14:12:32.214Z,15.1
2022-11-19T14:13:40.532Z,15.1
2022-11-19T14:14:48.874Z,15.1
2022-11-19T14:15:57.436Z,16.4
2022-11-19T14:17:05.761Z,16.4
2022-11-19T14:18:14.097Z,16.4
2022-11-19T14:19:22.876Z,15.9
2022-11-19T14:20:31.002Z,15.9
2022-11-19T14:21:39.333Z,15.9
2022-11-19T14:22:47.884Z,15.7
2022-11-19T14:23:56.216Z,15.7
2022-11-19T14:25:04.605Z,15.7
2022-11-19T14:26:13.138Z,14.8
2022-11-19T14:27:21.497Z,14.8
2022-11-19T14:28:29.860Z,14.8
2022-11-19T14:29:38.388Z,14.7
2022-11-19T15:03:06.646Z,0
2022-11-19T15:04:14.904Z,0
2022-11-19T15:05:23.243Z,0
2022-11-19T15:06:31.790Z,16.1